createdAt,value
2018-06-22T00:00:54.288Z,0.00
2018-06-22T00:01:54.310Z,0.00
2018-06-22T00:02:54.344Z,0.00
2018-06-22T00:03:54.351Z,0.00
2018-06-22T00:04:54.366Z,0.00
2018-06-22T00:05:54.398Z,0.00
2018-06-22T00:06:54.404Z,0.00
2018-06-22T00:07:54.427Z,0.00
2018-06-22T00:08:54.434Z,0.00
2018-06-22T00:09:54.478Z,0.00
2018-06-22T00:10:54.505Z,0.00
2018-06-22T00:11:54.496Z,0.00
2018-06-22T00:12:54.507Z,0.00
2018-06-22T00:13:54.526Z,0.00
2018-06-22T00:14:54.550Z,0.00
2018-06-22T00:15:54.577Z,0.00
2018-06-22T00:16:54.589Z,0.00
2018-06-22T00:17:54.630Z,0.00
2018-06-22T00:18:54.634Z,0.00
2018-06-22T00:19:54.646Z,0.00
2018-06-22T00:20:54.654Z,0.00
2018-06-22T00:21:54.696Z,0.00
2018-06-22T00:22:54.696Z,0.00
2018-06-22T00:23:54.711Z,0.00
2018-06-22T00:24:54.730Z,0.00
2018-06-22T00:25:54.754Z,0.00
2018-06-22T00:26:54.797Z,0.00
2018-06-22T00:27:54.784Z,0.00
2018-06-22T00:28:54.838Z,0.00
2018-06-22T00:29:54.834Z,0.00
2018-06-22T00:30:54.843Z,0.00
2018-06-22T00:31:54.863Z,0.00
2018-06-22T00:32:54.884Z,0.00
2018-06-22T00:33:54.896Z,0.00
2018-06-22T00:34:54.944Z,0.00
2018-06-22T00:35:54.938Z,0.00
2018-06-22T00:36:54.950Z,0.00
2018-06-22T00:37:54.965Z,0.00
2018-06-22T00:38:54.989Z,0.00
2018-06-22T00:39:55.013Z,0.00
2018-06-22T00:40:55.041Z,0.00
2018-06-22T00:41:55.046Z,0.00
2018-06-22T00:42:55.055Z,0.00
2018-06-22T00:43:55.080Z,0.00
2018-06-22T00:44:55.103Z,0.00
2018-06-22T00:45:55.118Z,0.00
2018-06-22T00:46:55.141Z,0.00
2018-06-22T00:47:55.159Z,0.00
2018-06-22T00:48:55.174Z,0.00
2018-06-22T00:49:55.190Z,0.00
2018-06-22T00:50:55.220Z,0.00
2018-06-22T00:51:55.226Z,0.00
2018-06-22T00:52:55.256Z,0.00
2018-06-22T00:53:55.262Z,0.00
2018-06-22T00:54:55.289Z,0.00
2018-06-22T00:55:55.300Z,0.00
2018-06-22T00:56:55.354Z,0.00
2018-06-22T00:57:55.365Z,0.00
2018-06-22T00:58:55.360Z,0.00
2018-06-22T00:59:55.371Z,0.00
2018-06-22T01:00:55.400Z,0.00
2018-06-22T01:01:55.416Z,0.00
2018-06-22T01:02:55.432Z,0.00
2018-06-22T01:03:55.454Z,0.00
2018-06-22T01:04:55.470Z,0.00
2018-06-22T01:05:55.480Z,0.00
2018-06-22T01:06:55.508Z,0.00
2018-06-22T01:07:55.530Z,0.00
2018-06-22T01:08:55.537Z,0.00
2018-06-22T01:09:55.578Z,0.00
2018-06-22T01:10:55.579Z,0.00
2018-06-22T01:11:55.590Z,0.00
2018-06-22T01:12:55.619Z,0.00
2018-06-22T01:13:55.631Z,0.00
2018-06-22T01:14:55.650Z,0.00
2018-06-22T01:15:55.664Z,0.00
2018-06-22T01:16:55.679Z,0.00
2018-06-22T01:17:55.744Z,0.00
2018-06-22T01:18:55.729Z,0.00
2018-06-22T01:19:55.743Z,0.00
2018-06-22T01:20:55.757Z,0.00
2018-06-22T01:21:55.790Z,0.00
2018-06-22T01:22:55.801Z,0.00
2018-06-22T01:23:55.813Z,0.00
2018-06-22T01:24:55.831Z,0.00
2018-06-22T01:25:55.867Z,0.00
2018-06-22T01:26:55.878Z,0.00
2018-06-22T01:27:55.890Z,0.00
2018-06-22T01:28:55.911Z,0.00
2018-06-22T01:29:55.926Z,0.00
2018-06-22T01:30:55.958Z,0.00
2018-06-22T01:31:55.951Z,0.00
2018-06-22T01:32:55.998Z,0.00
2018-06-22T01:33:55.994Z,0.00
2018-06-22T01:34:56.014Z,0.00
2018-06-22T01:35:56.028Z,0.00
2018-06-22T01:36:56.051Z,0.00
2018-06-22T01:37:56.071Z,0.00
2018-06-22T01:38:56.101Z,0.00
2018-06-22T01:39:56.105Z,0.00
2018-06-22T01:40:56.122Z,0.00
2018-06-22T01:41:56.140Z,0.00
2018-06-22T01:42:56.157Z,0.00
2018-06-22T01:43:56.174Z,0.00
2018-06-22T01:44:56.207Z,0.00
2018-06-22T01:45:56.215Z,0.00
2018-06-22T01:46:56.229Z,0.00
2018-06-22T01:47:56.245Z,0.00
2018-06-22T01:48:56.284Z,0.00
2018-06-22T01:49:56.303Z,0.00
2018-06-22T01:50:56.304Z,0.00
2018-06-22T01:51:56.318Z,0.00
2018-06-22T01:52:56.335Z,0.00
2018-06-22T01:53:56.439Z,0.00
2018-06-22T01:54:56.405Z,0.00
2018-06-22T01:55:56.395Z,0.00
2018-06-22T01:56:56.423Z,0.00
2018-06-22T01:57:56.445Z,0.00
2018-06-22T01:58:56.451Z,0.00
2018-06-22T01:59:56.521Z,0.00
2018-06-22T02:00:56.504Z,0.00
2018-06-22T02:01:56.505Z,0.00
2018-06-22T02:02:56.518Z,0.00
2018-06-22T02:03:56.542Z,0.00
2018-06-22T02:04:56.644Z,0.00
2018-06-22T02:05:56.720Z,0.00
2018-06-22T02:06:56.604Z,0.00
2018-06-22T02:07:56.614Z,0.00
2018-06-22T02:08:56.643Z,0.00
2018-06-22T02:09:56.679Z,0.00
2018-06-22T02:10:56.691Z,0.00
2018-06-22T02:11:56.693Z,0.00
2018-06-22T02:12:56.727Z,0.00
2018-06-22T02:13:56.730Z,0.00
2018-06-22T02:14:56.740Z,0.00
2018-06-22T02:15:56.757Z,0.00
2018-06-22T02:16:56.778Z,0.00
2018-06-22T02:17:56.800Z,0.00
2018-06-22T02:18:56.822Z,0.00
2018-06-22T02:19:56.837Z,0.00
2018-06-22T02:20:56.862Z,4.00
2018-06-22T02:21:56.874Z,4.00
2018-06-22T02:22:56.887Z,4.00
2018-06-22T02:23:56.920Z,4.00
2018-06-22T02:24:56.930Z,0.00
2018-06-22T02:25:56.950Z,4.00
2018-06-22T02:26:56.973Z,4.00
2018-06-22T02:27:56.985Z,8.00
2018-06-22T02:28:57.001Z,8.00
2018-06-22T02:29:57.036Z,12.00
2018-06-22T02:30:57.034Z,8.00
2018-06-22T02:31:57.059Z,12.00
2018-06-22T02:32:57.066Z,16.00
2018-06-22T02:33:57.109Z,16.00
2018-06-22T02:34:57.105Z,20.00
2018-06-22T02:35:57.130Z,24.00
2018-06-22T02:36:57.161Z,24.00
2018-06-22T02:37:57.170Z,20.00
2018-06-22T02:38:57.182Z,24.00
2018-06-22T02:39:57.201Z,24.00
2018-06-22T02:40:57.219Z,24.00
2018-06-22T02:41:57.237Z,20.00
2018-06-22T02:42:57.277Z,24.00
2018-06-22T02:43:57.276Z,20.00
2018-06-22T02:44:57.301Z,20.00
2018-06-22T02:45:57.308Z,24.00
2018-06-22T02:46:57.339Z,32.00
2018-06-22T02:47:57.359Z,48.00
2018-06-22T02:48:57.365Z,52.00
2018-06-22T02:49:57.384Z,44.00
2018-06-22T02:50:57.429Z,44.00
2018-06-22T02:51:57.442Z,52.00
2018-06-22T02:52:57.437Z,56.00
2018-06-22T02:53:57.460Z,56.00
2018-06-22T02:54:57.475Z,56.00
2018-06-22T02:55:57.497Z,48.00
2018-06-22T02:56:57.515Z,32.00
2018-06-22T02:57:57.530Z,36.00
2018-06-22T02:58:57.556Z,36.00
2018-06-22T02:59:57.627Z,60.00
2018-06-22T03:00:57.597Z,60.00
2018-06-22T03:01:57.609Z,68.00
2018-06-22T03:02:57.638Z,96.00
2018-06-22T03:03:57.642Z,76.00
2018-06-22T03:04:57.660Z,80.00
2018-06-22T03:05:57.680Z,104.00
2018-06-22T03:06:57.689Z,120.00
2018-06-22T03:07:57.723Z,112.00
2018-06-22T03:08:57.733Z,132.00
2018-06-22T03:09:57.760Z,180.00
2018-06-22T03:10:57.779Z,156.00
2018-06-22T03:11:57.797Z,124.00
2018-06-22T03:12:57.814Z,100.00
2018-06-22T03:13:57.833Z,104.00
2018-06-22T03:14:57.860Z,120.00
2018-06-22T03:15:57.870Z,144.00
2018-06-22T03:16:57.882Z,160.00
2018-06-22T03:17:57.908Z,184.00
2018-06-22T03:18:57.945Z,196.00
2018-06-22T03:19:57.932Z,180.00
2018-06-22T03:20:57.962Z,156.00
2018-06-22T03:21:57.970Z,124.00
2018-06-22T03:22:57.996Z,108.00
2018-06-22T03:23:58.006Z,116.00
2018-06-22T03:24:58.036Z,140.00
2018-06-22T03:25:58.050Z,176.00
2018-06-22T03:26:58.069Z,208.00
2018-06-22T03:27:58.104Z,248.00
2018-06-22T03:28:58.108Z,324.00
2018-06-22T03:29:58.123Z,420.00
2018-06-22T03:30:58.143Z,468.00
2018-06-22T03:31:58.247Z,424.00
2018-06-22T03:32:58.172Z,400.00
2018-06-22T03:33:58.199Z,408.00
2018-06-22T03:34:58.214Z,388.00
2018-06-22T03:35:58.241Z,392.00
2018-06-22T03:36:58.239Z,380.00
2018-06-22T03:37:58.263Z,364.00
2018-06-22T03:38:58.283Z,332.00
2018-06-22T03:39:58.300Z,304.00
2018-06-22T03:40:58.317Z,312.00
2018-06-22T03:41:58.333Z,320.00
2018-06-22T03:42:58.373Z,368.00
2018-06-22T03:43:58.376Z,452.00
2018-06-22T03:44:58.404Z,560.00
2018-06-22T03:45:58.410Z,564.00
2018-06-22T03:46:58.427Z,524.00
2018-06-22T03:47:58.460Z,476.00
2018-06-22T03:48:58.471Z,548.00
2018-06-22T03:49:58.492Z,544.00
2018-06-22T03:50:58.524Z,576.00
2018-06-22T03:51:58.531Z,632.00
2018-06-22T03:52:58.538Z,768.00
2018-06-22T03:53:58.556Z,868.00
2018-06-22T03:54:58.581Z,824.00
2018-06-22T03:55:58.596Z,808.00
2018-06-22T03:56:58.619Z,728.00
2018-06-22T03:57:58.638Z,572.00
2018-06-22T03:58:58.653Z,568.00
2018-06-22T03:59:58.665Z,696.00
2018-06-22T04:00:58.687Z,788.00
2018-06-22T04:01:58.702Z,696.00
2018-06-22T04:02:58.728Z,600.00
2018-06-22T04:03:58.743Z,688.00
2018-06-22T04:04:58.759Z,836.00
2018-06-22T04:05:58.779Z,1044.00
2018-06-22T04:06:58.793Z,1144.00
2018-06-22T04:07:58.828Z,1132.00
2018-06-22T04:08:58.914Z,1020.00
2018-06-22T04:09:58.854Z,1036.00
2018-06-22T04:10:58.877Z,944.00
2018-06-22T04:11:58.912Z,812.00
2018-06-22T04:12:58.904Z,708.00
2018-06-22T04:13:58.936Z,732.00
2018-06-22T04:14:58.940Z,748.00
2018-06-22T04:15:58.976Z,564.00
2018-06-22T04:16:58.992Z,452.00
2018-06-22T04:17:59.006Z,392.00
2018-06-22T04:18:59.019Z,396.00
2018-06-22T04:19:59.041Z,388.00
2018-06-22T04:20:59.063Z,408.00
2018-06-22T04:21:59.079Z,624.00
2018-06-22T04:22:59.097Z,736.00
2018-06-22T04:23:59.113Z,736.00
2018-06-22T04:24:59.137Z,840.00
2018-06-22T04:25:59.150Z,896.00
2018-06-22T04:26:59.163Z,840.00
2018-06-22T04:27:59.185Z,660.00
2018-06-22T04:28:59.208Z,640.00
2018-06-22T04:29:59.244Z,640.00
2018-06-22T04:30:59.239Z,872.00
2018-06-22T04:31:59.273Z,1016.00
2018-06-22T04:32:59.271Z,1048.00
2018-06-22T04:33:59.300Z,1060.00
2018-06-22T04:34:59.312Z,1064.00
2018-06-22T04:35:59.346Z,936.00
2018-06-22T04:36:59.348Z,768.00
2018-06-22T04:37:59.380Z,740.00
2018-06-22T04:38:59.388Z,776.00
2018-06-22T04:39:59.406Z,792.00
2018-06-22T04:40:59.431Z,840.00
2018-06-22T04:41:59.442Z,880.00
2018-06-22T04:42:59.465Z,1076.00
2018-06-22T04:43:59.480Z,1280.00
2018-06-22T04:44:59.507Z,1548.00
2018-06-22T04:45:59.543Z,1468.00
2018-06-22T04:46:59.547Z,1532.00
2018-06-22T04:47:59.556Z,1500.00
2018-06-22T04:48:59.579Z,1820.00
2018-06-22T04:49:59.596Z,1768.00
2018-06-22T04:50:59.611Z,1564.00
2018-06-22T04:51:59.630Z,1372.00
2018-06-22T04:52:59.651Z,1552.00
2018-06-22T04:53:59.672Z,1552.00
2018-06-22T04:54:59.684Z,1484.00
2018-06-22T04:55:59.703Z,1604.00
2018-06-22T04:56:59.738Z,1556.00
2018-06-22T04:57:59.755Z,1496.00
2018-06-22T04:58:59.772Z,2020.00
2018-06-22T04:59:59.782Z,2284.00
2018-06-22T05:00:59.840Z,2504.00
2018-06-22T05:01:59.824Z,2608.00
2018-06-22T05:02:59.895Z,2536.00
2018-06-22T05:03:59.854Z,2648.00
2018-06-22T05:04:59.867Z,2292.00
2018-06-22T05:05:59.890Z,1980.00
2018-06-22T05:06:59.919Z,1480.00
2018-06-22T05:07:59.936Z,1624.00
2018-06-22T05:08:59.951Z,1860.00
2018-06-22T05:09:59.964Z,2120.00
2018-06-22T05:10:59.979Z,2204.00
2018-06-22T05:12:00.014Z,1988.00
2018-06-22T05:13:00.022Z,2136.00
2018-06-22T05:14:00.058Z,2020.00
2018-06-22T05:15:00.060Z,1984.00
2018-06-22T05:16:00.074Z,1648.00
2018-06-22T05:17:00.098Z,2016.00
2018-06-22T05:18:00.115Z,1848.00
2018-06-22T05:19:00.131Z,1484.00
2018-06-22T05:20:00.152Z,1516.00
2018-06-22T05:21:00.177Z,1244.00
2018-06-22T05:22:00.189Z,1500.00
2018-06-22T05:23:00.201Z,1948.00
2018-06-22T05:24:00.239Z,2172.00
2018-06-22T05:25:00.251Z,2096.00
2018-06-22T05:26:00.275Z,1952.00
2018-06-22T05:27:00.279Z,1764.00
2018-06-22T05:28:00.325Z,1640.00
2018-06-22T05:29:00.315Z,1652.00
2018-06-22T05:30:00.337Z,1760.00
2018-06-22T05:31:00.360Z,1856.00
2018-06-22T05:32:00.392Z,2036.00
2018-06-22T05:33:00.391Z,2072.00
2018-06-22T05:34:00.414Z,2128.00
2018-06-22T05:35:00.467Z,2200.00
2018-06-22T05:36:00.455Z,2208.00
2018-06-22T05:37:00.471Z,2292.00
2018-06-22T05:38:00.480Z,2324.00
2018-06-22T05:39:00.501Z,2112.00
2018-06-22T05:40:00.519Z,1736.00
2018-06-22T05:41:00.534Z,1976.00
2018-06-22T05:42:00.551Z,2252.00
2018-06-22T05:43:00.582Z,2296.00
2018-06-22T05:44:00.594Z,2420.00
2018-06-22T05:45:00.616Z,2704.00
2018-06-22T05:46:00.638Z,2932.00
2018-06-22T05:47:00.646Z,3144.00
2018-06-22T05:48:00.680Z,3332.00
2018-06-22T05:49:00.698Z,3260.00
2018-06-22T05:50:00.707Z,3048.00
2018-06-22T05:51:00.798Z,2652.00
2018-06-22T05:52:00.738Z,2272.00
2018-06-22T05:53:00.784Z,2028.00
2018-06-22T05:54:00.780Z,2164.00
2018-06-22T05:55:00.792Z,2412.00
2018-06-22T05:56:00.821Z,2444.00
2018-06-22T05:57:00.829Z,2696.00
2018-06-22T05:58:00.856Z,2596.00
2018-06-22T05:59:00.868Z,2724.00
2018-06-22T06:00:00.885Z,2752.00
2018-06-22T06:01:00.903Z,2544.00
2018-06-22T06:02:00.937Z,2576.00
2018-06-22T06:03:00.946Z,2744.00
2018-06-22T06:04:00.988Z,2512.00
2018-06-22T06:05:00.979Z,2636.00
2018-06-22T06:06:01.003Z,2812.00
2018-06-22T06:07:01.013Z,2504.00
2018-06-22T06:08:01.044Z,2872.00
2018-06-22T06:09:01.052Z,2612.00
2018-06-22T06:10:01.074Z,2948.00
2018-06-22T06:11:01.108Z,3120.00
2018-06-22T06:12:01.109Z,3028.00
2018-06-22T06:13:01.127Z,3148.00
2018-06-22T06:14:01.144Z,3268.00
2018-06-22T06:15:01.170Z,3600.00
2018-06-22T06:16:01.177Z,4016.00
2018-06-22T06:17:01.204Z,4272.00
2018-06-22T06:18:01.222Z,4620.00
2018-06-22T06:19:01.239Z,4892.00
2018-06-22T06:20:01.301Z,5144.00
2018-06-22T06:21:01.273Z,5120.00
2018-06-22T06:22:01.297Z,4860.00
2018-06-22T06:23:01.310Z,4608.00
2018-06-22T06:24:01.322Z,4636.00
2018-06-22T06:25:01.344Z,4648.00
2018-06-22T06:26:01.359Z,4664.00
2018-06-22T06:27:01.376Z,4636.00
2018-06-22T06:28:01.405Z,4504.00
2018-06-22T06:29:01.420Z,4140.00
2018-06-22T06:30:01.454Z,2764.00
2018-06-22T06:31:01.479Z,2380.00
2018-06-22T06:32:01.488Z,2672.00
2018-06-22T06:33:01.487Z,3164.00
2018-06-22T06:34:01.514Z,3660.00
2018-06-22T06:35:01.546Z,5196.00
2018-06-22T06:36:01.540Z,6000.00
2018-06-22T06:37:01.570Z,5876.00
2018-06-22T06:38:01.579Z,6572.00
2018-06-22T06:39:01.610Z,5776.00
2018-06-22T06:40:01.680Z,5112.00
2018-06-22T06:41:01.638Z,4636.00
2018-06-22T06:42:01.675Z,4632.00
2018-06-22T06:43:01.667Z,4804.00
2018-06-22T06:44:01.689Z,5360.00
2018-06-22T06:45:01.709Z,5688.00
2018-06-22T06:46:01.735Z,5916.00
2018-06-22T06:47:01.752Z,5956.00
2018-06-22T06:48:01.762Z,6292.00
2018-06-22T06:49:01.788Z,6592.00
2018-06-22T06:50:01.800Z,6756.00
2018-06-22T06:51:01.818Z,7156.00
2018-06-22T06:52:01.882Z,6692.00
2018-06-22T06:53:01.861Z,6280.00
2018-06-22T06:54:01.881Z,5464.00
2018-06-22T06:55:01.899Z,4836.00
2018-06-22T06:56:01.913Z,5296.00
2018-06-22T06:57:01.948Z,5748.00
2018-06-22T06:58:01.944Z,4600.00
2018-06-22T06:59:01.970Z,4704.00
2018-06-22T07:00:02.001Z,5580.00
2018-06-22T07:01:02.016Z,5440.00
2018-06-22T07:02:02.030Z,4712.00
2018-06-22T07:03:02.042Z,4692.00
2018-06-22T07:04:02.063Z,4612.00
2018-06-22T07:05:02.085Z,4292.00
2018-06-22T07:06:02.101Z,2788.00
2018-06-22T07:07:02.111Z,3372.00
2018-06-22T07:08:02.137Z,4056.00
2018-06-22T07:09:02.151Z,4752.00
2018-06-22T07:10:02.208Z,6040.00
2018-06-22T07:11:02.192Z,7212.00
2018-06-22T07:12:02.220Z,8124.00
2018-06-22T07:13:02.239Z,8312.00
2018-06-22T07:14:02.238Z,8792.00
2018-06-22T07:15:02.268Z,8848.00
2018-06-22T07:16:02.289Z,11284.00
2018-06-22T07:17:02.303Z,13428.00
2018-06-22T07:18:02.333Z,16404.00
2018-06-22T07:19:02.340Z,17760.00
2018-06-22T07:20:02.359Z,17952.00
2018-06-22T07:21:02.376Z,15404.00
2018-06-22T07:22:02.409Z,12916.00
2018-06-22T07:23:02.412Z,13212.00
2018-06-22T07:24:02.429Z,15564.00
2018-06-22T07:25:02.449Z,15500.00
2018-06-22T07:26:02.470Z,14384.00
2018-06-22T07:27:02.497Z,12852.00
2018-06-22T07:28:02.507Z,11672.00
2018-06-22T07:29:02.528Z,12604.00
2018-06-22T07:30:02.556Z,13056.00
2018-06-22T07:31:02.577Z,15984.00
2018-06-22T07:32:02.583Z,18336.00
2018-06-22T07:33:02.605Z,16588.00
2018-06-22T07:34:02.622Z,17312.00
2018-06-22T07:35:02.662Z,14680.00
2018-06-22T07:36:02.747Z,23168.00
2018-06-22T07:37:02.679Z,29312.00
2018-06-22T07:38:02.701Z,24448.00
2018-06-22T07:39:02.735Z,23392.00
2018-06-22T07:40:02.749Z,77152.00
2018-06-22T07:41:02.756Z,55584.00
2018-06-22T07:42:02.802Z,27264.00
2018-06-22T07:43:02.796Z,22880.00
2018-06-22T07:44:02.957Z,89184.00
2018-06-22T07:45:02.849Z,29408.00
2018-06-22T07:46:02.878Z,37696.00
2018-06-22T07:47:02.880Z,24544.00
2018-06-22T07:48:02.903Z,18912.00
2018-06-22T07:49:02.942Z,13648.00
2018-06-22T07:50:02.952Z,17760.00
2018-06-22T07:51:02.981Z,18976.00
2018-06-22T07:52:02.987Z,20288.00
2018-06-22T07:53:03.014Z,18944.00
2018-06-22T07:54:03.027Z,15216.00
2018-06-22T07:55:03.090Z,15400.00
2018-06-22T07:56:03.090Z,23488.00
2018-06-22T07:57:03.106Z,28160.00
2018-06-22T07:58:03.113Z,37088.00
2018-06-22T07:59:03.129Z,26464.00
2018-06-22T08:00:03.152Z,32960.00
2018-06-22T08:01:03.180Z,20288.00
2018-06-22T08:02:03.201Z,20416.00
2018-06-22T08:03:03.212Z,26688.00
2018-06-22T08:04:03.242Z,15424.00
2018-06-22T08:05:03.262Z,16812.00
2018-06-22T08:06:03.285Z,15624.00
2018-06-22T08:07:03.297Z,12812.00
2018-06-22T08:08:03.325Z,12232.00
2018-06-22T08:09:03.342Z,8220.00
2018-06-22T08:10:03.372Z,4764.00
2018-06-22T08:11:03.441Z,4200.00
2018-06-22T08:12:03.400Z,6932.00
2018-06-22T08:13:03.429Z,9856.00
2018-06-22T08:14:03.451Z,7084.00
2018-06-22T08:15:03.476Z,7772.00
2018-06-22T08:16:03.495Z,8196.00
2018-06-22T08:17:03.508Z,9168.00
2018-06-22T08:18:03.525Z,8452.00
2018-06-22T08:19:03.554Z,7536.00
2018-06-22T08:20:03.568Z,9376.00
2018-06-22T08:21:03.597Z,10324.00
2018-06-22T08:22:03.611Z,9464.00
2018-06-22T08:23:03.631Z,10452.00
2018-06-22T08:24:03.664Z,12404.00
2018-06-22T08:25:03.698Z,11684.00
2018-06-22T08:26:03.698Z,11672.00
2018-06-22T08:27:03.711Z,11248.00
2018-06-22T08:28:03.752Z,11020.00
2018-06-22T08:29:03.752Z,11244.00
2018-06-22T08:30:03.777Z,10368.00
2018-06-22T08:31:03.786Z,8160.00
2018-06-22T08:32:03.807Z,7196.00
2018-06-22T08:33:03.825Z,7492.00
2018-06-22T08:34:03.844Z,9368.00
2018-06-22T08:35:03.885Z,10212.00
2018-06-22T08:36:03.897Z,11396.00
2018-06-22T08:37:03.908Z,14084.00
2018-06-22T08:38:03.930Z,19872.00
2018-06-22T08:39:03.954Z,25568.00
2018-06-22T08:40:03.975Z,22944.00
2018-06-22T08:41:04.011Z,26016.00
2018-06-22T08:42:04.064Z,21824.00
2018-06-22T08:43:04.058Z,22304.00
2018-06-22T08:44:04.047Z,22080.00
2018-06-22T08:45:04.070Z,19840.00
2018-06-22T08:46:04.087Z,18784.00
2018-06-22T08:47:04.114Z,18880.00
2018-06-22T08:48:04.129Z,19200.00
2018-06-22T08:49:04.222Z,20480.00
2018-06-22T08:50:04.177Z,22368.00
2018-06-22T08:51:04.189Z,24704.00
2018-06-22T08:52:04.208Z,26656.00
2018-06-22T08:53:04.232Z,29760.00
2018-06-22T08:54:04.251Z,25184.00
2018-06-22T08:55:04.300Z,21824.00
2018-06-22T08:56:04.291Z,19040.00
2018-06-22T08:57:04.330Z,17312.00
2018-06-22T08:58:04.334Z,15272.00
2018-06-22T08:59:04.354Z,14640.00
2018-06-22T09:00:04.384Z,12816.00
2018-06-22T09:01:04.399Z,9992.00
2018-06-22T09:02:04.423Z,9652.00
2018-06-22T09:03:04.449Z,10904.00
2018-06-22T09:04:04.473Z,14912.00
2018-06-22T09:05:04.479Z,17952.00
2018-06-22T09:06:04.511Z,18336.00
2018-06-22T09:07:04.571Z,16372.00
2018-06-22T09:08:04.572Z,18848.00
2018-06-22T09:09:04.567Z,18752.00
2018-06-22T09:10:04.609Z,15212.00
2018-06-22T09:11:04.611Z,10956.00
2018-06-22T09:12:04.647Z,8376.00
2018-06-22T09:13:04.653Z,7536.00
2018-06-22T09:14:04.666Z,8344.00
2018-06-22T09:15:04.693Z,10836.00
2018-06-22T09:16:04.731Z,15144.00
2018-06-22T09:17:04.728Z,20672.00
2018-06-22T09:18:04.758Z,26240.00
2018-06-22T09:19:04.829Z,21888.00
2018-06-22T09:20:04.790Z,18368.00
2018-06-22T09:21:04.818Z,15880.00
2018-06-22T09:22:04.834Z,12060.00
2018-06-22T09:23:04.873Z,9732.00
2018-06-22T09:24:04.905Z,10468.00
2018-06-22T09:25:04.895Z,10896.00
2018-06-22T09:26:05.009Z,12268.00
2018-06-22T09:27:04.992Z,14740.00
2018-06-22T09:28:04.964Z,15508.00
2018-06-22T09:29:05.007Z,15168.00
2018-06-22T09:30:05.006Z,17952.00
2018-06-22T09:31:05.020Z,20512.00
2018-06-22T09:32:05.036Z,20608.00
2018-06-22T09:33:05.062Z,21120.00
2018-06-22T09:34:05.075Z,21472.00
2018-06-22T09:35:05.118Z,22144.00
2018-06-22T09:36:05.123Z,23744.00
2018-06-22T09:37:05.147Z,23680.00
2018-06-22T09:38:05.165Z,22176.00
2018-06-22T09:39:05.179Z,20960.00
2018-06-22T09:40:05.206Z,20192.00
2018-06-22T09:41:05.229Z,21600.00
2018-06-22T09:42:05.247Z,22528.00
2018-06-22T09:43:05.266Z,20544.00
2018-06-22T09:44:05.296Z,21440.00
2018-06-22T09:45:05.329Z,22272.00
2018-06-22T09:46:05.331Z,16040.00
2018-06-22T09:47:05.345Z,10292.00
2018-06-22T09:48:05.369Z,8272.00
2018-06-22T09:49:05.409Z,7184.00
2018-06-22T09:50:05.415Z,6672.00
2018-06-22T09:51:05.438Z,6056.00
2018-06-22T09:52:05.447Z,5924.00
2018-06-22T09:53:05.530Z,6252.00
2018-06-22T09:54:05.493Z,7680.00
2018-06-22T09:55:05.547Z,9404.00
2018-06-22T09:56:05.545Z,9288.00
2018-06-22T09:57:05.554Z,8068.00
2018-06-22T09:58:05.579Z,8056.00
2018-06-22T09:59:05.596Z,9940.00
2018-06-22T10:00:05.636Z,10724.00
2018-06-22T10:01:05.646Z,11076.00
2018-06-22T10:02:05.667Z,10500.00
2018-06-22T10:03:05.755Z,10100.00
2018-06-22T10:04:05.702Z,9764.00
2018-06-22T10:05:05.717Z,9516.00
2018-06-22T10:06:05.748Z,9344.00
2018-06-22T10:07:05.755Z,9448.00
2018-06-22T10:08:05.813Z,9324.00
2018-06-22T10:09:05.811Z,9408.00
2018-06-22T10:10:05.822Z,9456.00
2018-06-22T10:11:05.844Z,9588.00
2018-06-22T10:12:05.869Z,9664.00
2018-06-22T10:13:05.886Z,10108.00
2018-06-22T10:14:05.902Z,11240.00
2018-06-22T10:15:05.919Z,11796.00
2018-06-22T10:16:05.959Z,12560.00
2018-06-22T10:17:05.969Z,14704.00
2018-06-22T10:18:05.984Z,15504.00
2018-06-22T10:19:06.003Z,16168.00
2018-06-22T10:20:06.032Z,15400.00
2018-06-22T10:21:06.056Z,16228.00
2018-06-22T10:22:06.072Z,16252.00
2018-06-22T10:23:06.087Z,16388.00
2018-06-22T10:24:06.110Z,15512.00
2018-06-22T10:25:06.133Z,13700.00
2018-06-22T10:26:06.151Z,11756.00
2018-06-22T10:27:06.228Z,9456.00
2018-06-22T10:28:06.189Z,7108.00
2018-06-22T10:29:06.219Z,4992.00
2018-06-22T10:30:06.239Z,4016.00
2018-06-22T10:31:06.250Z,3796.00
2018-06-22T10:32:06.280Z,3872.00
2018-06-22T10:33:06.300Z,4284.00
2018-06-22T10:34:06.316Z,4852.00
2018-06-22T10:35:06.343Z,5480.00
2018-06-22T10:36:06.364Z,6156.00
2018-06-22T10:37:06.393Z,6256.00
2018-06-22T10:38:06.407Z,5924.00
2018-06-22T10:39:06.471Z,5988.00
2018-06-22T10:40:06.478Z,6984.00
2018-06-22T10:41:06.464Z,9412.00
2018-06-22T10:42:06.485Z,12236.00
2018-06-22T10:43:06.507Z,14960.00
2018-06-22T10:44:06.521Z,16632.00
2018-06-22T10:45:06.545Z,17600.00
2018-06-22T10:46:06.586Z,17984.00
2018-06-22T10:47:06.638Z,18176.00
2018-06-22T10:48:06.602Z,19328.00
2018-06-22T10:49:06.627Z,19328.00
2018-06-22T10:50:06.642Z,21056.00
2018-06-22T10:51:06.665Z,23328.00
2018-06-22T10:52:06.686Z,23136.00
2018-06-22T10:53:06.768Z,20640.00
2018-06-22T10:54:06.738Z,19872.00
2018-06-22T10:55:06.742Z,19712.00
2018-06-22T10:56:06.764Z,20096.00
2018-06-22T10:57:06.785Z,19872.00
2018-06-22T10:58:06.806Z,19904.00
2018-06-22T10:59:06.829Z,19392.00
2018-06-22T11:00:06.862Z,18208.00
2018-06-22T11:01:06.875Z,17632.00
2018-06-22T11:02:06.887Z,18464.00
2018-06-22T11:03:06.913Z,18848.00
2018-06-22T11:04:06.956Z,18464.00
2018-06-22T11:05:06.949Z,18464.00
2018-06-22T11:06:06.980Z,17440.00
2018-06-22T11:07:06.996Z,15992.00
2018-06-22T11:08:07.017Z,14808.00
2018-06-22T11:09:07.044Z,13260.00
2018-06-22T11:10:07.066Z,12000.00
2018-06-22T11:11:07.094Z,11048.00
2018-06-22T11:12:07.113Z,10256.00
2018-06-22T11:13:07.127Z,9764.00
2018-06-22T11:14:07.142Z,9740.00
2018-06-22T11:15:07.168Z,9492.00
2018-06-22T11:16:07.192Z,9484.00
2018-06-22T11:17:07.233Z,9728.00
2018-06-22T11:18:07.233Z,10164.00
2018-06-22T11:19:07.250Z,11232.00
2018-06-22T11:20:07.280Z,12076.00
2018-06-22T11:21:07.296Z,13300.00
2018-06-22T11:22:07.320Z,14676.00
2018-06-22T11:23:07.342Z,14836.00
2018-06-22T11:24:07.387Z,16232.00
2018-06-22T11:25:07.382Z,15980.00
2018-06-22T11:26:07.418Z,16260.00
2018-06-22T11:27:07.437Z,17408.00
2018-06-22T11:28:07.445Z,16532.00
2018-06-22T11:29:07.465Z,16416.00
2018-06-22T11:30:07.487Z,16320.00
2018-06-22T11:31:07.518Z,15068.00
2018-06-22T11:32:07.572Z,15472.00
2018-06-22T11:33:07.559Z,16392.00
2018-06-22T11:34:07.577Z,16500.00
2018-06-22T11:35:07.598Z,15440.00
2018-06-22T11:36:07.643Z,15348.00
2018-06-22T11:37:07.645Z,16296.00
2018-06-22T11:38:07.663Z,19648.00
2018-06-22T11:39:07.691Z,20576.00
2018-06-22T11:40:07.706Z,18944.00
2018-06-22T11:41:07.737Z,18432.00
2018-06-22T11:42:07.751Z,17536.00
2018-06-22T11:43:07.778Z,15068.00
2018-06-22T11:44:07.798Z,13712.00
2018-06-22T11:45:07.820Z,12228.00
2018-06-22T11:46:07.847Z,10844.00
2018-06-22T11:47:07.863Z,10236.00
2018-06-22T11:48:07.882Z,10824.00
2018-06-22T11:49:07.916Z,11064.00
2018-06-22T11:50:07.928Z,9532.00
2018-06-22T11:51:08.015Z,8228.00
2018-06-22T11:52:07.982Z,9128.00
2018-06-22T11:53:08.002Z,12496.00
2018-06-22T11:54:08.031Z,15440.00
2018-06-22T11:55:08.035Z,17664.00
2018-06-22T11:56:08.080Z,19040.00
2018-06-22T11:57:08.079Z,19712.00
2018-06-22T11:58:08.102Z,18176.00
2018-06-22T11:59:08.192Z,15640.00
2018-06-22T12:00:08.148Z,13576.00
2018-06-22T12:01:08.171Z,11352.00
2018-06-22T12:02:08.228Z,9444.00
2018-06-22T12:03:08.204Z,8800.00
2018-06-22T12:04:08.226Z,9148.00
2018-06-22T12:05:08.251Z,10060.00
2018-06-22T12:06:08.271Z,10940.00
2018-06-22T12:07:08.343Z,11692.00
2018-06-22T12:08:08.312Z,12472.00
2018-06-22T12:09:08.330Z,13632.00
2018-06-22T12:10:08.363Z,15160.00
2018-06-22T12:11:08.389Z,16460.00
2018-06-22T12:12:08.403Z,17568.00
2018-06-22T12:13:08.420Z,18400.00
2018-06-22T12:14:08.442Z,18784.00
2018-06-22T12:15:08.460Z,18464.00
2018-06-22T12:16:08.484Z,17888.00
2018-06-22T12:17:08.503Z,16992.00
2018-06-22T12:18:08.528Z,16960.00